createdAt,value
2018-06-08T00:00:36.538Z,95790.20
2018-06-08T00:03:05.174Z,95789.91
2018-06-08T00:05:33.757Z,95786.84
2018-06-08T00:08:02.395Z,95792.67
2018-06-08T00:10:30.979Z,95783.75
2018-06-08T00:12:59.550Z,95779.88
2018-06-08T00:15:28.127Z,95786.37
2018-06-08T00:17:56.712Z,95782.39
2018-06-08T00:20:25.342Z,95782.06
2018-06-08T00:22:53.916Z,95780.92
2018-06-08T00:25:22.496Z,95781.03
2018-06-08T00:27:51.106Z,95779.77
2018-06-08T00:30:19.725Z,95780.08
2018-06-08T00:32:48.307Z,95787.21
2018-06-08T00:35:16.943Z,95774.97
2018-06-08T00:37:45.511Z,95779.13
2018-06-08T00:40:14.091Z,95775.08
2018-06-08T00:42:42.688Z,95777.13
2018-06-08T00:45:11.298Z,95743.55
2018-06-08T00:47:39.884Z,95784.17
2018-06-08T00:50:08.483Z,95780.75
2018-06-08T00:52:37.089Z,95779.75
2018-06-08T00:55:06.111Z,95789.97
2018-06-08T00:57:34.694Z,95785.64
2018-06-08T01:00:04.614Z,95780.37
2018-06-08T01:02:33.215Z,95783.66
2018-06-08T01:05:01.803Z,95785.52
2018-06-08T01:07:30.394Z,95785.23
2018-06-08T01:09:58.957Z,95780.16
2018-06-08T01:12:27.565Z,95781.91
2018-06-08T01:14:56.118Z,95788.58
2018-06-08T01:17:24.734Z,95752.09
2018-06-08T01:19:53.340Z,95793.09
2018-06-08T01:22:21.931Z,95791.36
2018-06-08T01:24:50.527Z,95790.79
2018-06-08T01:27:19.122Z,95782.84
2018-06-08T01:29:47.682Z,95787.98
2018-06-08T01:32:16.275Z,95784.35
2018-06-08T01:34:44.829Z,95771.72
2018-06-08T01:37:13.442Z,95774.73
2018-06-08T01:39:42.026Z,95775.81
2018-06-08T01:42:10.606Z,95776.23
2018-06-08T01:44:39.212Z,95769.28
2018-06-08T01:47:07.767Z,95771.78
2018-06-08T01:49:36.359Z,95777.17
2018-06-08T01:52:04.990Z,95774.73
2018-06-08T01:54:33.610Z,95772.52
2018-06-08T01:57:02.213Z,95779.89
2018-06-08T01:59:30.897Z,95771.30
2018-06-08T02:01:59.466Z,95774.87
2018-06-08T02:04:28.039Z,95774.88
2018-06-08T02:06:56.604Z,95770.59
2018-06-08T02:09:25.228Z,95778.02
2018-06-08T02:11:53.895Z,95767.77
2018-06-08T02:14:22.477Z,95781.47
2018-06-08T02:16:51.078Z,95762.80
2018-06-08T02:19:21.900Z,95763.44
2018-06-08T02:21:50.511Z,95768.09
2018-06-08T02:24:19.102Z,95766.50
2018-06-08T02:26:47.718Z,95776.32
2018-06-08T02:29:16.283Z,95786.87
2018-06-08T02:31:44.899Z,95793.80
2018-06-08T02:34:13.459Z,95793.37
2018-06-08T02:36:42.038Z,95788.48
2018-06-08T02:39:10.686Z,95791.72
2018-06-08T02:41:39.291Z,95794.66
2018-06-08T02:44:07.935Z,95799.63
2018-06-08T02:46:36.582Z,95800.70
2018-06-08T02:49:05.226Z,95805.35
2018-06-08T02:51:33.832Z,95809.56
2018-06-08T02:54:02.466Z,95812.62
2018-06-08T02:56:31.386Z,95810.50
2018-06-08T02:58:59.962Z,95812.98
2018-06-08T03:01:28.935Z,95811.03
2018-06-08T03:03:57.520Z,95812.75
2018-06-08T03:06:26.104Z,95808.83
2018-06-08T03:08:54.685Z,95809.62
2018-06-08T03:11:23.331Z,95815.31
2018-06-08T03:13:51.951Z,95816.45
2018-06-08T03:16:20.574Z,95812.09
2018-06-08T03:18:49.187Z,95807.43
2018-06-08T03:21:17.754Z,95805.36
2018-06-08T03:23:46.328Z,95803.05
2018-06-08T03:26:14.895Z,95812.30
2018-06-08T03:28:43.501Z,95819.59
2018-06-08T03:31:12.088Z,95825.56
2018-06-08T03:33:40.970Z,95828.20
2018-06-08T03:36:09.552Z,95832.14
2018-06-08T03:38:38.134Z,95833.84
2018-06-08T03:41:06.881Z,95832.13
2018-06-08T03:43:35.444Z,95828.62
2018-06-08T03:46:04.059Z,95821.53
2018-06-08T03:48:32.644Z,95822.75
2018-06-08T03:51:01.326Z,95817.78
2018-06-08T03:53:29.895Z,95820.09
2018-06-08T03:55:58.499Z,95810.79
2018-06-08T03:58:27.062Z,95815.64
2018-06-08T04:00:55.648Z,95814.52
2018-06-08T04:03:24.302Z,95713.23
2018-06-08T04:05:52.887Z,95814.64
2018-06-08T04:08:21.515Z,95819.15
2018-06-08T04:10:50.134Z,95806.52
2018-06-08T04:13:18.739Z,95807.78
2018-06-08T04:15:47.386Z,95798.63
2018-06-08T04:18:15.986Z,95801.81
2018-06-08T04:20:44.579Z,95808.94
2018-06-08T04:23:13.174Z,95807.45
2018-06-08T04:25:41.856Z,95815.61
2018-06-08T04:28:10.415Z,95817.88
2018-06-08T04:30:39.023Z,95636.88
2018-06-08T04:33:07.612Z,95821.89
2018-06-08T04:35:36.251Z,95820.83
2018-06-08T04:38:04.832Z,95825.71
2018-06-08T04:40:33.492Z,95824.30
2018-06-08T04:43:02.046Z,95825.57
2018-06-08T04:45:30.657Z,95817.94
2018-06-08T04:47:59.227Z,95820.84
2018-06-08T04:50:27.848Z,95825.16
2018-06-08T04:52:56.427Z,95830.72
2018-06-08T04:55:25.042Z,95841.56
2018-06-08T04:57:53.606Z,95844.80
2018-06-08T05:00:22.182Z,95846.13
2018-06-08T05:02:50.771Z,95844.77
2018-06-08T05:05:19.363Z,95845.65
2018-06-08T05:07:47.977Z,95853.86
2018-06-08T05:10:16.606Z,95855.58
2018-06-08T05:12:45.159Z,95854.64
2018-06-08T05:15:13.763Z,95846.70
2018-06-08T05:17:42.390Z,95851.55
2018-06-08T05:20:11.003Z,95718.49
2018-06-08T05:22:39.642Z,95845.69
2018-06-08T05:25:08.241Z,95843.88
2018-06-08T05:27:37.187Z,95842.48
2018-06-08T05:30:16.846Z,95842.00
2018-06-08T05:32:45.998Z,95846.73
2018-06-08T05:35:14.628Z,95846.41
2018-06-08T05:37:43.242Z,95856.73
2018-06-08T05:40:11.876Z,95853.11
2018-06-08T05:42:40.488Z,95852.31
2018-06-08T05:45:09.195Z,95845.20
2018-06-08T05:47:38.279Z,95851.12
2018-06-08T05:50:06.968Z,95845.71
2018-06-08T05:52:35.620Z,95837.98
2018-06-08T05:55:04.248Z,95847.77
2018-06-08T05:57:32.823Z,95846.55
2018-06-08T06:00:01.511Z,95848.09
2018-06-08T06:02:30.193Z,95850.52
2018-06-08T06:04:58.792Z,95855.45
2018-06-08T06:07:27.391Z,95849.63
2018-06-08T06:09:56.027Z,95843.88
2018-06-08T06:12:24.641Z,95842.92
2018-06-08T06:14:53.310Z,95843.25
2018-06-08T06:17:21.943Z,95850.02
2018-06-08T06:19:50.566Z,95842.92
2018-06-08T06:22:19.177Z,95845.61
2018-06-08T06:24:47.832Z,95841.42
2018-06-08T06:27:16.465Z,95844.89
2018-06-08T06:29:45.049Z,95841.16
2018-06-08T06:32:13.646Z,95842.26
2018-06-08T06:34:42.274Z,95836.80
2018-06-08T06:37:10.911Z,95827.69
2018-06-08T06:39:39.535Z,95834.31
2018-06-08T06:42:08.088Z,95838.67
2018-06-08T06:44:36.749Z,95838.98
2018-06-08T06:47:05.432Z,95837.01
2018-06-08T06:49:34.069Z,95838.59
2018-06-08T06:52:03.099Z,95836.45
2018-06-08T06:54:31.679Z,95822.10
2018-06-08T06:57:00.273Z,95817.68
2018-06-08T06:59:28.857Z,95828.33
2018-06-08T07:01:57.455Z,95825.52
2018-06-08T07:04:26.132Z,95828.11
2018-06-08T07:06:54.730Z,95480.95
2018-06-08T07:09:23.300Z,95817.88
2018-06-08T07:11:51.907Z,95826.95
2018-06-08T07:14:20.556Z,95820.54
2018-06-08T07:16:49.175Z,95815.42
2018-06-08T07:19:17.788Z,95815.87
2018-06-08T07:21:46.384Z,95821.35
2018-06-08T07:24:14.991Z,95810.48
2018-06-08T07:26:43.622Z,95805.16
2018-06-08T07:29:12.257Z,95810.59
2018-06-08T07:31:40.934Z,95812.16
2018-06-08T07:34:09.518Z,95811.23
2018-06-08T07:36:38.069Z,95813.05
2018-06-08T07:39:07.927Z,95812.78
2018-06-08T07:41:36.560Z,95802.98
2018-06-08T07:44:05.141Z,95797.83
2018-06-08T07:46:33.747Z,95794.94
2018-06-08T07:49:02.356Z,95792.94
2018-06-08T07:51:30.984Z,95792.13
2018-06-08T07:53:59.555Z,95786.91
2018-06-08T07:56:28.478Z,95786.09
2018-06-08T07:58:57.088Z,95790.71
2018-06-08T08:01:25.718Z,95783.81
2018-06-08T08:03:54.306Z,95778.66
2018-06-08T08:06:22.988Z,95777.14
2018-06-08T08:08:51.567Z,95790.76
2018-06-08T08:11:20.195Z,95779.37
2018-06-08T08:13:49.153Z,95776.47
2018-06-08T08:16:17.782Z,95771.91
2018-06-08T08:18:46.395Z,95778.17
2018-06-08T08:21:15.047Z,95780.67
2018-06-08T08:23:43.628Z,95778.31
2018-06-08T08:26:12.219Z,95771.14
2018-06-08T08:28:41.140Z,95767.42
2018-06-08T08:31:09.766Z,95762.48
2018-06-08T08:33:38.342Z,95757.69
2018-06-08T08:36:07.991Z,95751.05
2018-06-08T08:38:36.564Z,95743.77
2018-06-08T08:41:05.252Z,95747.05
2018-06-08T08:43:33.871Z,95734.96
2018-06-08T08:46:02.474Z,95736.68
2018-06-08T08:48:31.191Z,95742.42
2018-06-08T08:50:59.918Z,95740.55
2018-06-08T08:53:28.510Z,95738.34
2018-06-08T08:55:57.120Z,95732.91
2018-06-08T08:58:25.693Z,95737.02
2018-06-08T09:00:54.267Z,95728.05
2018-06-08T09:03:22.866Z,95724.69
2018-06-08T09:05:51.508Z,95725.53
2018-06-08T09:08:20.203Z,95723.78
2018-06-08T09:10:48.977Z,95720.17
2018-06-08T09:13:17.573Z,95717.20
2018-06-08T09:15:46.240Z,95718.85
2018-06-08T09:18:14.825Z,95712.20
2018-06-08T09:20:43.444Z,95703.86
2018-06-08T09:23:12.013Z,95710.95
2018-06-08T09:25:40.656Z,95714.69
2018-06-08T09:28:09.606Z,95704.53
2018-06-08T09:30:38.185Z,95692.91
2018-06-08T09:33:06.877Z,95699.30
2018-06-08T09:35:35.515Z,95696.09
2018-06-08T09:38:04.179Z,95695.24
2018-06-08T09:40:32.787Z,95689.55
2018-06-08T09:43:01.401Z,95692.13
2018-06-08T09:45:29.998Z,95690.45
2018-06-08T09:47:58.586Z,95676.53
2018-06-08T09:50:27.381Z,95680.80
2018-06-08T09:52:56.052Z,95686.33
2018-06-08T09:55:24.666Z,95681.77
2018-06-08T09:57:53.252Z,95676.11
2018-06-08T10:00:27.030Z,95672.48
2018-06-08T10:02:56.111Z,95669.81
2018-06-08T10:05:24.733Z,95660.27
2018-06-08T10:07:53.310Z,95665.69
2018-06-08T10:10:21.915Z,95662.91
2018-06-08T10:12:50.564Z,95665.97
2018-06-08T10:15:19.155Z,95660.74
2018-06-08T10:17:47.748Z,95656.41
2018-06-08T10:20:16.354Z,95652.58
2018-06-08T10:22:44.975Z,95651.42
2018-06-08T10:25:13.562Z,95648.81
2018-06-08T10:27:42.163Z,95646.42
2018-06-08T10:30:11.164Z,95646.41
2018-06-08T10:32:39.787Z,95636.02
2018-06-08T10:35:08.439Z,95642.58
2018-06-08T10:37:37.057Z,95637.13
2018-06-08T10:40:05.702Z,95635.49
2018-06-08T10:42:34.387Z,95642.99
2018-06-08T10:45:03.075Z,95630.66
2018-06-08T10:47:31.688Z,95635.80
2018-06-08T10:50:00.607Z,95625.16
2018-06-08T10:52:29.199Z,95620.06
2018-06-08T10:54:57.783Z,95620.73
2018-06-08T10:57:30.366Z,95609.81
2018-06-08T10:59:59.230Z,95616.55
2018-06-08T11:02:28.187Z,95603.06
2018-06-08T11:04:56.770Z,95615.25
2018-06-08T11:07:25.382Z,95598.95
2018-06-08T11:09:53.952Z,95601.49
2018-06-08T11:12:22.548Z,95606.39
2018-06-08T11:14:51.507Z,95596.42
2018-06-08T11:17:20.398Z,95597.31
2018-06-08T11:19:48.998Z,95585.94
2018-06-08T11:22:17.626Z,95585.45
2018-06-08T11:24:46.254Z,95578.92
2018-06-08T11:27:14.842Z,95584.05
2018-06-08T11:29:43.415Z,95577.70
2018-06-08T11:32:12.018Z,95580.63
2018-06-08T11:34:40.610Z,95579.84
2018-06-08T11:37:09.273Z,95584.70
2018-06-08T11:39:38.198Z,95579.47
2018-06-08T11:42:06.835Z,95572.93
2018-06-08T11:44:35.443Z,95570.53
2018-06-08T11:47:04.081Z,95561.85
2018-06-08T11:49:32.651Z,95562.76
2018-06-08T11:52:01.249Z,95546.81
2018-06-08T11:54:29.839Z,95548.99
2018-06-08T11:56:58.420Z,95539.69
2018-06-08T11:59:27.026Z,95555.64
2018-06-08T12:01:55.634Z,95536.55
2018-06-08T12:04:24.309Z,95527.39
2018-06-08T12:06:52.893Z,95535.59
2018-06-08T12:09:21.573Z,95530.21
2018-06-08T12:11:50.226Z,95533.52
2018-06-08T12:14:18.806Z,95536.78
2018-06-08T12:16:47.401Z,95533.29
2018-06-08T12:19:16.014Z,95527.99
2018-06-08T12:21:44.629Z,95512.33
2018-06-08T12:24:13.210Z,95512.64
2018-06-08T12:26:41.834Z,95524.39
2018-06-08T12:29:10.443Z,95512.45
2018-06-08T12:31:39.039Z,95504.46
2018-06-08T12:34:07.658Z,95512.70
2018-06-08T12:36:36.306Z,95511.24
2018-06-08T12:39:07.407Z,95504.87
2018-06-08T12:41:36.918Z,95500.46
2018-06-08T12:44:05.464Z,95496.77
2018-06-08T12:46:34.123Z,95483.23
2018-06-08T12:49:02.841Z,95496.79
2018-06-08T12:51:31.496Z,95503.65
2018-06-08T12:54:00.090Z,95487.95
2018-06-08T12:56:28.661Z,95489.31
2018-06-08T12:58:57.237Z,95485.59
2018-06-08T13:01:25.839Z,95489.19
2018-06-08T13:03:54.442Z,95476.64
2018-06-08T13:06:23.062Z,95475.20
2018-06-08T13:08:51.687Z,95467.54
2018-06-08T13:11:20.289Z,95481.97
2018-06-08T13:13:48.959Z,95477.89
2018-06-08T13:16:17.576Z,95475.58
2018-06-08T13:18:46.187Z,95464.80
2018-06-08T13:21:14.840Z,95461.05
2018-06-08T13:23:43.436Z,95456.76
2018-06-08T13:26:12.194Z,95460.34
2018-06-08T13:28:40.811Z,95455.67
2018-06-08T13:31:09.457Z,95443.70
2018-06-08T13:33:38.022Z,95447.67
2018-06-08T13:36:06.616Z,95462.33
2018-06-08T13:38:35.190Z,95449.89
2018-06-08T13:41:03.872Z,95452.00
2018-06-08T13:43:32.539Z,95441.31
2018-06-08T13:46:01.098Z,95439.11
2018-06-08T13:48:29.859Z,95447.77
2018-06-08T13:50:58.466Z,95427.27
2018-06-08T13:53:27.127Z,95425.67
2018-06-08T13:55:55.712Z,95420.63
2018-06-08T13:58:24.334Z,95424.34
2018-06-08T14:00:52.919Z,95413.75
2018-06-08T14:03:21.564Z,95411.30
2018-06-08T14:05:50.645Z,95408.98
2018-06-08T14:08:19.226Z,95404.28
2018-06-08T14:10:47.834Z,95396.03
2018-06-08T14:13:16.601Z,95393.08
2018-06-08T14:15:45.231Z,95382.48
2018-06-08T14:18:13.839Z,95381.37
2018-06-08T14:20:42.488Z,95388.81
2018-06-08T14:23:11.114Z,95386.22
2018-06-08T14:25:39.695Z,95376.44
2018-06-08T14:28:08.311Z,95364.08
2018-06-08T14:30:36.919Z,95364.78
2018-06-08T14:33:05.563Z,95364.38
2018-06-08T14:35:34.186Z,95359.92
2018-06-08T14:38:02.912Z,95354.56
2018-06-08T14:40:31.536Z,95363.73
2018-06-08T14:43:00.227Z,95353.93
2018-06-08T14:45:28.872Z,95358.97
2018-06-08T14:47:57.439Z,95346.77
2018-06-08T14:50:26.073Z,95348.86
2018-06-08T14:52:54.655Z,95361.14
2018-06-08T14:55:23.345Z,95363.27
2018-06-08T14:57:51.964Z,95361.99
2018-06-08T15:00:20.588Z,95356.27
2018-06-08T15:02:49.196Z,95352.20
2018-06-08T15:05:18.341Z,95346.59
2018-06-08T15:07:46.916Z,95349.27
2018-06-08T15:10:15.543Z,95353.21
2018-06-08T15:12:44.211Z,95343.45
2018-06-08T15:15:12.817Z,95364.64
2018-06-08T15:17:42.185Z,95343.22
2018-06-08T15:20:10.774Z,95352.19
2018-06-08T15:22:39.419Z,95356.90
2018-06-08T15:25:07.999Z,95349.45
2018-06-08T15:27:36.582Z,95346.22
2018-06-08T15:30:06.183Z,95337.29
2018-06-08T15:32:34.795Z,95334.84
2018-06-08T15:35:04.470Z,95334.94
2018-06-08T15:37:33.090Z,95349.27
2018-06-08T15:40:01.703Z,95340.81
2018-06-08T15:42:30.311Z,95348.72
2018-06-08T15:44:58.907Z,95353.73
2018-06-08T15:47:27.523Z,95350.98
2018-06-08T15:49:56.247Z,95342.61
2018-06-08T15:52:24.855Z,95356.22
2018-06-08T15:54:54.099Z,95353.06
2018-06-08T15:57:22.751Z,95362.09
2018-06-08T15:59:51.401Z,95362.77
2018-06-08T16:02:19.987Z,95349.90
2018-06-08T16:04:48.539Z,95361.27
2018-06-08T16:07:17.210Z,95358.20
2018-06-08T16:09:45.874Z,95366.53
2018-06-08T16:12:14.456Z,95363.16
2018-06-08T16:14:43.094Z,95356.34
2018-06-08T16:17:11.708Z,95360.17
2018-06-08T16:19:40.298Z,95363.19
2018-06-08T16:22:09.300Z,95363.52
2018-06-08T16:24:37.905Z,95367.69
2018-06-08T16:27:06.513Z,95210.55
2018-06-08T16:29:35.089Z,95363.73
2018-06-08T16:32:03.723Z,95370.08
2018-06-08T16:34:32.360Z,95371.30
2018-06-08T16:37:02.033Z,95365.95
2018-06-08T16:39:30.677Z,95376.11
2018-06-08T16:41:59.308Z,95380.98
2018-06-08T16:44:27.991Z,95378.23
2018-06-08T16:46:56.556Z,95370.45
2018-06-08T16:49:25.130Z,95358.59
2018-06-08T16:51:53.772Z,95369.66
2018-06-08T16:54:22.678Z,95372.58
2018-06-08T16:56:51.288Z,95376.75
2018-06-08T16:59:19.904Z,95364.81
2018-06-08T17:01:48.576Z,95369.30
2018-06-08T17:04:17.246Z,95367.23
2018-06-08T17:06:45.950Z,95365.77
2018-06-08T17:09:14.564Z,95355.62
2018-06-08T17:11:43.183Z,95364.11
2018-06-08T17:14:11.787Z,95355.91
2018-06-08T17:16:40.400Z,95181.65
2018-06-08T17:19:09.017Z,95355.47
2018-06-08T17:21:37.632Z,95350.26
2018-06-08T17:24:06.254Z,95349.47
2018-06-08T17:26:34.940Z,95352.23
2018-06-08T17:29:03.578Z,95355.10
2018-06-08T17:31:32.201Z,95349.11
2018-06-08T17:34:00.794Z,95352.72
2018-06-08T17:36:29.490Z,95352.63
2018-06-08T17:38:58.070Z,95346.03
2018-06-08T17:41:26.686Z,95330.99
2018-06-08T17:43:55.406Z,95342.11
2018-06-08T17:46:24.079Z,95344.77
2018-06-08T17:48:52.716Z,95333.87
2018-06-08T17:51:21.307Z,95324.95
2018-06-08T17:53:49.914Z,95318.81
2018-06-08T17:56:18.493Z,95326.11
2018-06-08T17:58:47.145Z,95313.17
2018-06-08T18:01:15.744Z,95308.92
2018-06-08T18:03:44.395Z,95301.54
2018-06-08T18:06:13.058Z,95306.02
2018-06-08T18:08:41.623Z,95303.98
2018-06-08T18:11:10.219Z,95294.22
2018-06-08T18:13:38.845Z,95306.69
2018-06-08T18:16:07.448Z,95304.36
2018-06-08T18:18:36.104Z,95301.41
2018-06-08T18:21:04.711Z,95303.82
2018-06-08T18:23:33.357Z,95299.17
2018-06-08T18:26:01.919Z,95306.91
2018-06-08T18:28:30.572Z,95299.92
2018-06-08T18:30:59.199Z,95313.01
2018-06-08T18:33:27.850Z,95307.38
2018-06-08T18:35:56.442Z,95317.83
2018-06-08T18:38:25.055Z,95309.17
2018-06-08T18:40:53.667Z,95306.84
2018-06-08T18:43:22.297Z,95308.94
2018-06-08T18:45:50.886Z,95309.53
2018-06-08T18:48:19.498Z,95305.63
2018-06-08T18:50:48.120Z,95305.03
2018-06-08T18:53:16.679Z,95304.13
2018-06-08T18:55:45.294Z,95308.50
2018-06-08T18:58:13.884Z,95308.19
2018-06-08T19:00:42.526Z,95299.41
2018-06-08T19:03:11.101Z,95295.73
2018-06-08T19:05:39.710Z,95295.09
2018-06-08T19:08:09.950Z,95298.11
2018-06-08T19:10:38.558Z,95292.24
2018-06-08T19:13:07.161Z,95303.37
2018-06-08T19:15:35.767Z,95305.92
2018-06-08T19:18:04.416Z,95310.91
2018-06-08T19:20:33.154Z,95313.47
2018-06-08T19:23:01.739Z,95319.41
2018-06-08T19:25:30.946Z,95308.02
2018-06-08T19:27:59.522Z,95307.47
2018-06-08T19:30:28.135Z,95320.45
2018-06-08T19:32:56.748Z,95325.96
2018-06-08T19:35:25.354Z,95327.53
2018-06-08T19:37:53.937Z,95332.65
2018-06-08T19:40:22.582Z,95335.05
2018-06-08T19:42:51.758Z,95274.99
2018-06-08T19:45:20.330Z,95330.64
2018-06-08T19:47:48.958Z,95345.23
2018-06-08T19:50:17.587Z,95361.95
2018-06-08T19:52:46.154Z,95358.63
2018-06-08T19:55:14.758Z,95358.30
2018-06-08T19:57:43.383Z,95352.17
2018-06-08T20:00:14.729Z,95360.42
2018-06-08T20:02:43.330Z,95357.31
2018-06-08T20:05:11.981Z,95357.48
2018-06-08T20:07:40.560Z,95360.34
2018-06-08T20:10:09.153Z,95364.25
2018-06-08T20:12:38.271Z,95371.13
2018-06-08T20:15:06.851Z,95366.64
2018-06-08T20:17:35.427Z,95369.20
2018-06-08T20:20:04.062Z,95370.02
2018-06-08T20:22:32.648Z,95360.84
2018-06-08T20:25:01.264Z,95363.59
2018-06-08T20:27:29.819Z,95361.13
2018-06-08T20:29:58.431Z,95364.14
2018-06-08T20:32:27.015Z,95366.53
2018-06-08T20:34:55.586Z,95368.89
2018-06-08T20:37:24.510Z,95369.56
2018-06-08T20:39:53.150Z,95361.38
2018-06-08T20:42:21.742Z,95321.21
2018-06-08T20:44:50.346Z,95356.75
2018-06-08T20:47:19.014Z,95350.68
2018-06-08T20:49:47.935Z,95353.80
2018-06-08T20:52:16.563Z,95356.97
2018-06-08T20:54:45.170Z,95347.92
2018-06-08T20:57:23.521Z,95338.13
2018-06-08T20:59:52.134Z,95346.69
2018-06-08T21:02:20.972Z,95351.05
2018-06-08T21:04:50.179Z,95350.59
2018-06-08T21:07:18.862Z,95354.20
2018-06-08T21:09:47.478Z,95357.97
2018-06-08T21:12:16.252Z,95351.89
2018-06-08T21:14:44.895Z,95349.78
2018-06-08T21:17:13.548Z,95348.23
2018-06-08T21:19:42.246Z,95342.75
2018-06-08T21:22:10.834Z,95345.55
2018-06-08T21:24:39.533Z,95342.85
2018-06-08T21:27:08.234Z,95342.85
2018-06-08T21:29:36.796Z,95339.64
2018-06-08T21:32:05.462Z,95330.23
2018-06-08T21:34:34.199Z,95328.28
2018-06-08T21:37:02.828Z,95320.30
2018-06-08T21:39:31.457Z,95325.42
2018-06-08T21:42:00.049Z,95326.85
2018-06-08T21:44:28.680Z,95317.23
2018-06-08T21:46:57.297Z,95313.70
2018-06-08T21:49:25.923Z,95309.58
2018-06-08T21:51:54.546Z,95308.20
2018-06-08T21:54:23.181Z,95307.63
2018-06-08T21:56:51.828Z,95304.72
2018-06-08T21:59:20.426Z,95306.31
2018-06-08T22:01:49.060Z,95304.03
2018-06-08T22:04:17.696Z,95299.20
2018-06-08T22:06:46.351Z,95303.95
2018-06-08T22:09:18.661Z,95302.25
2018-06-08T22:11:47.548Z,95300.13
2018-06-08T22:14:16.170Z,95305.41
2018-06-08T22:16:44.897Z,95298.30
2018-06-08T22:19:13.522Z,95293.59
2018-06-08T22:21:42.183Z,95290.47
2018-06-08T22:24:10.831Z,95287.15
2018-06-08T22:26:39.566Z,95287.67
2018-06-08T22:29:08.185Z,95285.84
2018-06-08T22:31:36.795Z,95280.63
2018-06-08T22:34:05.543Z,95283.41
2018-06-08T22:36:34.106Z,95281.33
2018-06-08T22:39:02.764Z,95273.52
2018-06-08T22:41:31.367Z,95275.89
2018-06-08T22:44:00.009Z,95265.28
2018-06-08T22:46:28.613Z,95266.45
2018-06-08T22:48:57.201Z,95263.86
2018-06-08T22:51:25.809Z,95269.56
2018-06-08T22:53:54.414Z,95252.55
2018-06-08T22:56:22.993Z,95260.80
2018-06-08T22:58:51.669Z,95259.05
2018-06-08T23:01:20.293Z,95260.20
2018-06-08T23:03:48.865Z,95263.13
2018-06-08T23:06:17.453Z,95258.96
2018-06-08T23:08:46.063Z,95259.58
2018-06-08T23:11:14.646Z,95253.09
2018-06-08T23:13:43.252Z,95248.23
2018-06-08T23:16:11.861Z,95245.70
2018-06-08T23:18:40.478Z,95242.98
2018-06-08T23:21:09.065Z,95241.05
2018-06-08T23:23:37.700Z,95245.37
2018-06-08T23:26:06.312Z,95245.20
2018-06-08T23:28:34.975Z,95232.84
2018-06-08T23:31:03.569Z,95231.27
2018-06-08T23:33:32.162Z,95224.62
2018-06-08T23:36:00.910Z,95231.27
2018-06-08T23:38:29.526Z,95227.78
2018-06-08T23:40:58.130Z,95221.75
2018-06-08T23:43:26.720Z,95223.92
2018-06-08T23:45:55.402Z,95225.49
2018-06-08T23:48:24.050Z,95229.41
2018-06-08T23:50:52.677Z,95235.47
2018-06-08T23:53:21.244Z,95233.52
2018-06-08T23:55:50.681Z,95225.45
2018-06-08T23:58:19.385Z,95227.45
